createdAt,value
2023-04-19T04:39:21.896Z,99646.24
2023-04-19T04:41:57.232Z,99640.48
2023-04-19T04:44:31.149Z,99634.73
2023-04-19T04:46:58.159Z,99635.18
2023-04-19T04:49:26.852Z,99638.59
2023-04-19T04:51:53.930Z,99640.37
2023-04-19T04:54:30.244Z,99646.54
2023-04-19T04:56:58.790Z,99653.90
2023-04-19T04:59:34.393Z,99653.42
2023-04-19T05:12:42.219Z,99652.31
2023-04-19T05:45:12.954Z,99657.63
2023-04-19T07:03:04.394Z,99653.11
2023-04-19T07:05:31.709Z,99654.46
2023-04-19T07:07:58.608Z,99651.71
2023-04-19T07:10:27.950Z,99650.72
2023-04-19T07:12:55.171Z,99645.95
2023-04-19T07:15:24.984Z,99644.19
2023-04-19T07:17:54.391Z,99640.36
2023-04-19T08:08:44.362Z,99612.91
2023-04-19T08:11:13.529Z,99605.56
2023-04-19T08:13:40.654Z,99605.15
2023-04-19T08:18:38.267Z,99597.16
2023-04-19T08:21:05.556Z,99590.65
2023-04-19T10:15:49.239Z,99584.04
2023-04-19T10:18:52.501Z,99583.76
2023-04-19T10:22:00.149Z,99584.10
2023-04-19T10:31:17.306Z,99583.77
2023-04-19T10:34:09.217Z,99583.39
2023-04-19T10:36:37.596Z,99580.51
2023-04-19T10:39:24.488Z,99577.65
2023-04-19T11:34:24.706Z,99578.38
2023-04-19T11:36:55.141Z,99576.95
2023-04-19T11:39:22.946Z,99581.57
2023-04-19T11:41:52.967Z,99582.77
2023-04-19T11:44:20.267Z,99589.76
2023-04-19T11:47:08.448Z,99596.06
2023-04-19T11:49:35.403Z,99602.40
2023-04-19T11:52:05.854Z,99602.16
2023-04-19T11:54:33.413Z,99599.73
2023-04-19T11:57:05.950Z,99598.54
2023-04-19T11:59:33.337Z,99593.35
2023-04-19T12:02:05.793Z,99592.56
2023-04-19T12:04:32.877Z,99585.64
2023-04-19T12:07:01.689Z,99583.17
2023-04-19T12:09:31.224Z,99577.06
2023-04-19T12:12:39.231Z,99571.50
2023-04-19T12:16:02.820Z,99569.30
2023-04-19T12:18:47.854Z,99559.66
2023-04-19T12:21:32.534Z,99559.40
2023-04-19T12:24:01.321Z,99560.38
2023-04-19T12:26:29.310Z,99557.27
2023-04-19T12:29:17.168Z,99550.42
2023-04-19T12:31:45.101Z,99553.38
2023-04-19T13:51:42.793Z,99648.46
2023-04-19T13:54:21.351Z,99645.88
2023-04-19T13:56:52.842Z,99647.23
2023-04-19T13:59:56.201Z,99646.02
2023-04-19T14:02:24.288Z,99644.88
2023-04-19T14:04:52.442Z,99642.83
2023-04-19T14:07:23.714Z,99636.56
2023-04-19T14:46:08.597Z,99616.30
2023-04-19T15:19:46.384Z,99639.27
2023-04-19T15:22:13.484Z,99634.55
2023-04-19T15:24:42.369Z,99621.80
2023-04-19T15:27:17.403Z,99610.82
2023-04-19T15:29:46.930Z,99608.73
2023-04-19T15:32:13.944Z,99616.84
2023-04-19T15:34:46.642Z,99626.18
2023-04-19T15:40:33.508Z,99629.42
2023-04-19T15:43:13.217Z,99630.02
2023-04-19T17:00:39.434Z,99643.24
2023-04-19T18:01:05.002Z,99647.73
2023-04-19T18:03:34.224Z,99653.74
2023-04-19T18:19:46.674Z,99648.42
2023-04-19T18:22:22.558Z,99641.76
2023-04-19T18:24:56.262Z,99639.78
2023-04-19T18:27:23.162Z,99641.36
2023-04-19T18:29:51.823Z,99642.18
2023-04-19T18:32:21.163Z,99643.10
2023-04-19T18:59:04.300Z,99641.83
2023-04-19T19:26:38.923Z,99628.57
2023-04-19T19:29:06.157Z,99622.54
2023-04-19T19:31:33.198Z,99613.36
2023-04-19T19:34:22.064Z,99605.05
2023-04-19T19:36:53.455Z,99599.89
2023-04-19T19:39:37.370Z,99592.27
2023-04-19T19:42:06.329Z,99586.84
2023-04-19T19:44:33.548Z,99582.02
2023-04-19T19:47:00.649Z,99578.88
2023-04-19T19:49:27.844Z,99575.17
2023-04-19T19:51:59.069Z,99571.00
2023-04-19T19:54:27.049Z,99567.50
2023-04-19T19:57:35.636Z,99563.05
2023-04-19T19:59:49.341Z,99565.02
2023-04-19T20:02:19.777Z,99562.21
2023-04-19T20:04:48.710Z,99559.71
2023-04-19T20:10:12.400Z,99555.77
2023-04-19T20:12:41.261Z,99549.66
2023-04-19T20:15:11.122Z,99545.38
2023-04-19T20:17:39.537Z,99545.15
2023-04-19T20:20:08.365Z,99541.77
2023-04-19T20:22:35.767Z,99535.70
2023-04-19T20:32:03.170Z,99534.80
2023-04-19T20:34:31.490Z,99525.57
2023-04-19T21:29:44.054Z,99513.05
2023-04-19T21:32:11.448Z,99504.82
2023-04-19T21:34:38.641Z,99502.91
2023-04-19T21:37:05.646Z,99504.84
2023-04-19T21:39:32.982Z,99505.86
2023-04-19T21:42:00.909Z,99506.77
2023-04-19T21:44:28.329Z,99507.04
2023-04-19T21:46:55.653Z,99504.65
2023-04-19T21:49:22.545Z,99508.61
2023-04-19T21:51:50.541Z,99508.16
2023-04-19T21:54:23.366Z,99508.48
2023-04-19T21:56:57.924Z,99505.48
2023-04-19T21:59:24.997Z,99505.36
2023-04-19T22:01:53.672Z,99509.04
2023-04-19T22:04:23.658Z,99510.36
2023-04-19T22:06:53.297Z,99513.48
2023-04-19T22:09:20.332Z,99515.43
2023-04-19T22:11:49.607Z,99517.56
2023-04-19T22:32:04.198Z,99518.02
2023-04-19T22:35:41.122Z,99518.56
2023-04-19T22:38:08.200Z,99514.26
2023-04-19T22:40:35.301Z,99506.97
2023-04-19T22:43:02.197Z,99508.98
2023-04-19T22:45:29.001Z,99518.56
2023-04-19T22:47:56.097Z,99516.98
2023-04-19T23:51:46.357Z,99543.04
2023-04-19T23:54:34.134Z,99546.87
2023-04-19T23:57:01.941Z,99539.42
2023-04-19T23:59:32.294Z,99533.67
